createdAt,value
2018-04-10T00:00:19.127Z,54.97
2018-04-10T00:02:47.359Z,52.87
2018-04-10T00:05:14.793Z,56.77
2018-04-10T00:07:42.241Z,53.80
2018-04-10T00:10:10.577Z,54.97
2018-04-10T00:12:38.051Z,59.47
2018-04-10T00:15:05.493Z,57.53
2018-04-10T00:17:32.948Z,49.10
2018-04-10T00:20:00.474Z,53.50
2018-04-10T00:22:27.926Z,54.03
2018-04-10T00:24:55.389Z,47.50
2018-04-10T00:27:23.603Z,41.90
2018-04-10T00:29:51.041Z,46.17
2018-04-10T00:32:18.499Z,46.73
2018-04-10T00:34:45.941Z,41.93
2018-04-10T00:37:13.394Z,39.60
2018-04-10T00:39:41.618Z,38.70
2018-04-10T00:42:09.053Z,37.00
2018-04-10T00:44:36.502Z,35.37
2018-04-10T00:47:04.722Z,35.23
2018-04-10T00:49:32.166Z,36.17
2018-04-10T00:51:59.621Z,38.27
2018-04-10T00:54:27.081Z,32.40
2018-04-10T00:56:54.537Z,36.63
2018-04-10T00:59:21.972Z,34.17
2018-04-10T01:01:50.254Z,34.43
2018-04-10T01:04:18.462Z,35.03
2018-04-10T01:06:45.955Z,38.00
2018-04-10T01:09:13.385Z,34.80
2018-04-10T01:11:40.858Z,42.50
2018-04-10T01:14:08.298Z,39.80
2018-04-10T01:16:35.745Z,35.10
2018-04-10T01:19:03.974Z,40.30
2018-04-10T01:21:31.413Z,35.57
2018-04-10T01:23:58.853Z,34.70
2018-04-10T01:26:27.061Z,39.33
2018-04-10T01:28:54.529Z,42.93
2018-04-10T01:31:21.973Z,43.00
2018-04-10T01:33:49.430Z,37.53
2018-04-10T01:36:16.886Z,38.97
2018-04-10T01:38:44.331Z,39.17
2018-04-10T01:41:12.554Z,37.30
2018-04-10T01:43:40.010Z,39.10
2018-04-10T01:46:07.455Z,40.93
2018-04-10T01:48:34.905Z,37.10
2018-04-10T01:51:02.361Z,42.30
2018-04-10T01:53:30.581Z,39.20
2018-04-10T01:55:58.031Z,38.77
2018-04-10T01:58:25.486Z,39.60
2018-04-10T02:00:52.925Z,41.27
2018-04-10T02:03:20.393Z,39.20
2018-04-10T02:05:47.840Z,38.43
2018-04-10T02:08:16.065Z,40.77
2018-04-10T02:10:43.514Z,39.30
2018-04-10T02:13:10.991Z,40.27
2018-04-10T02:15:38.448Z,43.07
2018-04-10T02:18:05.883Z,43.73
2018-04-10T02:20:34.146Z,43.90
2018-04-10T02:23:02.369Z,42.07
2018-04-10T02:25:29.826Z,46.70
2018-04-10T02:27:57.274Z,44.17
2018-04-10T02:30:24.730Z,44.03
2018-04-10T02:32:52.186Z,42.17
2018-04-10T02:35:19.645Z,42.20
2018-04-10T02:37:47.102Z,46.40
2018-04-10T02:40:14.558Z,51.73
2018-04-10T02:42:42.761Z,41.83
2018-04-10T02:45:10.209Z,44.20
2018-04-10T02:47:37.649Z,44.63
2018-04-10T02:50:05.870Z,44.77
2018-04-10T02:52:33.309Z,49.50
2018-04-10T02:55:00.756Z,45.33
2018-04-10T02:57:28.978Z,54.20
2018-04-10T02:59:56.433Z,44.57
2018-04-10T03:02:23.870Z,49.80
2018-04-10T03:04:51.317Z,51.53
2018-04-10T03:07:19.623Z,47.03
2018-04-10T03:09:47.062Z,46.53
2018-04-10T03:12:15.286Z,47.23
2018-04-10T03:14:42.731Z,46.07
2018-04-10T03:17:10.189Z,50.23
2018-04-10T03:19:37.645Z,54.47
2018-04-10T03:22:05.099Z,48.50
2018-04-10T03:24:32.550Z,49.23
2018-04-10T03:26:59.993Z,50.67
2018-04-10T03:29:28.218Z,48.03
2018-04-10T03:31:55.682Z,50.57
2018-04-10T03:34:23.134Z,52.77
2018-04-10T03:36:50.582Z,53.70
2018-04-10T03:39:18.038Z,53.57
2018-04-10T03:41:46.242Z,51.27
2018-04-10T03:44:14.461Z,51.53
2018-04-10T03:46:41.901Z,50.80
2018-04-10T03:49:09.353Z,51.23
2018-04-10T03:51:36.811Z,48.50
2018-04-10T03:54:04.262Z,52.23
2018-04-10T03:56:31.713Z,61.33
2018-04-10T03:58:59.191Z,59.27
2018-04-10T04:01:26.634Z,52.17
2018-04-10T04:03:54.089Z,56.73
2018-04-10T04:06:22.306Z,60.87
2018-04-10T04:08:50.509Z,60.47
2018-04-10T04:11:17.981Z,49.50
2018-04-10T04:13:46.206Z,52.63
2018-04-10T04:16:25.541Z,57.30
2018-04-10T04:19:05.022Z,54.17
2018-04-10T04:21:44.362Z,60.10
2018-04-10T04:24:12.680Z,54.63
2018-04-10T04:26:40.117Z,53.90
2018-04-10T04:29:08.334Z,54.60
2018-04-10T04:31:35.769Z,55.50
2018-04-10T04:34:03.213Z,59.40
2018-04-10T04:36:31.429Z,55.63
2018-04-10T04:38:58.883Z,55.97
2018-04-10T04:41:26.342Z,54.40
2018-04-10T04:43:53.781Z,54.63
2018-04-10T04:46:21.997Z,60.10
2018-04-10T04:48:49.438Z,50.40
2018-04-10T04:51:16.881Z,59.97
2018-04-10T04:53:44.325Z,52.40
2018-04-10T04:56:12.553Z,59.97
2018-04-10T04:58:40.042Z,51.47
2018-04-10T05:01:07.489Z,52.37
2018-04-10T05:03:34.957Z,54.53
2018-04-10T05:06:02.413Z,59.07
2018-04-10T05:08:29.874Z,55.33
2018-04-10T05:10:57.337Z,54.50
2018-04-10T05:13:25.546Z,63.73
2018-04-10T05:15:52.999Z,52.87
2018-04-10T05:18:20.433Z,54.80
2018-04-10T05:20:47.885Z,58.83
2018-04-10T05:23:15.334Z,59.67
2018-04-10T05:25:42.781Z,57.13
2018-04-10T05:28:11.442Z,69.67
2018-04-10T05:30:38.877Z,60.77
2018-04-10T05:33:06.321Z,57.47
2018-04-10T05:35:33.776Z,54.80
2018-04-10T05:38:01.222Z,58.20
2018-04-10T05:40:28.674Z,52.37
2018-04-10T05:42:56.118Z,52.63
2018-04-10T05:45:24.342Z,56.67
2018-04-10T05:47:51.789Z,50.93
2018-04-10T05:50:19.267Z,66.33
2018-04-10T05:52:46.714Z,54.30
2018-04-10T05:55:14.165Z,47.93
2018-04-10T05:57:41.655Z,51.77
2018-04-10T06:00:09.116Z,51.60
2018-04-10T06:02:36.572Z,52.10
2018-04-10T06:05:04.030Z,51.90
2018-04-10T06:07:31.469Z,42.07
2018-04-10T06:09:58.917Z,54.50
2018-04-10T06:12:27.142Z,45.57
2018-04-10T06:14:54.586Z,46.33
2018-04-10T06:17:22.038Z,43.77
2018-04-10T06:19:49.503Z,49.40
2018-04-10T06:22:16.960Z,47.03
2018-04-10T06:24:44.402Z,52.00
2018-04-10T06:27:12.613Z,50.70
2018-04-10T06:29:40.085Z,40.83
2018-04-10T06:32:07.542Z,45.40
2018-04-10T06:34:35.000Z,45.53
2018-04-10T06:37:02.489Z,39.90
2018-04-10T06:39:29.943Z,42.97
2018-04-10T06:41:57.416Z,36.70
2018-04-10T06:44:24.857Z,39.67
2018-04-10T06:46:52.328Z,37.20
2018-04-10T06:49:19.757Z,38.47
2018-04-10T06:51:47.217Z,36.57
2018-04-10T06:54:15.422Z,40.37
2018-04-10T06:56:42.906Z,41.47
2018-04-10T06:59:10.358Z,35.87
2018-04-10T07:01:37.840Z,40.43
2018-04-10T07:04:05.288Z,39.20
2018-04-10T07:06:32.852Z,42.17
2018-04-10T07:09:00.376Z,38.00
2018-04-10T07:11:27.965Z,37.20
2018-04-10T07:13:55.411Z,43.37
2018-04-10T07:16:22.858Z,35.73
2018-04-10T07:18:50.297Z,38.33
2018-04-10T07:21:18.510Z,33.47
2018-04-10T07:23:45.968Z,38.53
2018-04-10T07:26:13.422Z,42.10
2018-04-10T07:28:40.847Z,35.47
2018-04-10T07:31:09.075Z,39.00
2018-04-10T07:33:36.518Z,38.83
2018-04-10T07:36:03.973Z,35.33
2018-04-10T07:38:31.414Z,41.53
2018-04-10T07:40:59.638Z,32.83
2018-04-10T07:43:27.086Z,37.27
2018-04-10T07:45:54.541Z,35.47
2018-04-10T07:48:21.993Z,30.90
2018-04-10T07:50:49.434Z,30.93
2018-04-10T07:53:17.651Z,32.93
2018-04-10T07:55:45.102Z,30.70
2018-04-10T07:58:12.553Z,32.27
2018-04-10T08:00:40.114Z,35.27
2018-04-10T08:03:07.536Z,32.63
2018-04-10T08:05:35.770Z,30.20
2018-04-10T08:08:03.222Z,28.60
2018-04-10T08:10:30.654Z,32.83
2018-04-10T08:12:58.105Z,27.83
2018-04-10T08:15:26.118Z,32.53
2018-04-10T08:17:53.566Z,31.77
2018-04-10T08:20:21.768Z,28.37
2018-04-10T08:22:49.222Z,25.87
2018-04-10T08:25:16.666Z,23.37
2018-04-10T08:27:44.881Z,28.00
2018-04-10T08:30:12.332Z,22.33
2018-04-10T08:32:39.788Z,23.50
2018-04-10T08:35:07.238Z,21.47
2018-04-10T08:37:34.707Z,16.87
2018-04-10T08:40:02.901Z,19.77
2018-04-10T08:42:30.366Z,16.47
2018-04-10T08:44:57.837Z,17.50
2018-04-10T08:47:25.267Z,14.67
2018-04-10T08:49:52.709Z,14.87
2018-04-10T08:52:20.959Z,19.63
2018-04-10T08:54:48.394Z,17.63
2018-04-10T08:57:15.843Z,12.90
2018-04-10T08:59:43.300Z,18.53
2018-04-10T09:02:10.764Z,16.43
2018-04-10T09:04:38.197Z,18.60
2018-04-10T09:07:06.443Z,16.60
2018-04-10T09:09:33.886Z,17.13
2018-04-10T09:12:01.422Z,19.67
2018-04-10T09:14:28.866Z,15.50
2018-04-10T09:16:56.334Z,17.73
2018-04-10T09:19:23.776Z,20.27
2018-04-10T09:21:52.043Z,14.87
2018-04-10T09:24:19.451Z,15.80
2018-04-10T09:26:46.909Z,11.73
2018-04-10T09:29:14.337Z,14.90
2018-04-10T09:31:42.555Z,17.40
2018-04-10T09:34:10.009Z,16.07
2018-04-10T09:36:37.452Z,14.87
2018-04-10T09:39:07.749Z,14.03
2018-04-10T09:41:35.203Z,12.10
2018-04-10T09:44:02.655Z,18.40
2018-04-10T09:46:30.883Z,14.47
2018-04-10T09:48:59.077Z,10.27
2018-04-10T09:51:26.538Z,17.70
2018-04-10T09:53:53.989Z,15.57
2018-04-10T09:56:21.425Z,16.70
2018-04-10T09:58:49.648Z,12.50
2018-04-10T10:01:17.101Z,15.20
2018-04-10T10:03:44.562Z,15.13
2018-04-10T10:06:11.993Z,14.23
2018-04-10T10:08:41.317Z,13.93
2018-04-10T10:11:08.750Z,13.93
2018-04-10T10:13:36.966Z,11.43
2018-04-10T10:16:04.407Z,12.50
2018-04-10T10:18:32.639Z,11.37
2018-04-10T10:21:00.117Z,11.27
2018-04-10T10:23:27.583Z,10.97
2018-04-10T10:25:55.031Z,10.53
2018-04-10T10:28:22.478Z,11.03
2018-04-10T10:30:49.926Z,13.90
2018-04-10T10:33:17.435Z,13.30
2018-04-10T10:35:45.140Z,17.67
2018-04-10T10:38:12.585Z,17.30
2018-04-10T10:40:40.021Z,10.47
2018-04-10T10:43:07.499Z,13.70
2018-04-10T10:45:35.706Z,10.93
2018-04-10T10:48:03.170Z,12.50
2018-04-10T10:50:30.601Z,11.87
2018-04-10T10:52:58.813Z,10.97
2018-04-10T10:55:26.266Z,13.03
2018-04-10T10:57:53.706Z,11.33
2018-04-10T11:00:21.927Z,9.63
2018-04-10T11:02:49.399Z,10.37
2018-04-10T11:05:16.913Z,12.87
2018-04-10T11:07:45.147Z,12.63
2018-04-10T11:10:12.600Z,10.30
2018-04-10T11:12:40.038Z,13.20
2018-04-10T11:15:07.506Z,11.90
2018-04-10T11:17:34.993Z,11.30
2018-04-10T11:20:02.538Z,10.67
2018-04-10T11:22:30.117Z,8.50
2018-04-10T11:24:57.675Z,9.60
2018-04-10T11:27:25.209Z,8.23
2018-04-10T11:29:52.637Z,12.10
2018-04-10T11:32:20.874Z,8.57
2018-04-10T11:34:48.320Z,9.83
2018-04-10T11:37:15.761Z,9.60
2018-04-10T11:39:43.211Z,10.30
2018-04-10T11:42:11.448Z,7.20
2018-04-10T11:44:38.906Z,9.77
2018-04-10T11:47:06.470Z,11.33
2018-04-10T11:49:33.925Z,11.00
2018-04-10T11:52:01.390Z,14.03
2018-04-10T11:54:28.845Z,11.17
2018-04-10T11:56:56.416Z,11.90
2018-04-10T11:59:23.887Z,10.37
2018-04-10T12:01:51.332Z,14.87
2018-04-10T12:04:18.819Z,7.80
2018-04-10T12:06:46.278Z,8.63
2018-04-10T12:09:13.847Z,6.63
2018-04-10T12:11:41.381Z,10.77
2018-04-10T12:14:08.859Z,10.27
2018-04-10T12:16:36.309Z,11.93
2018-04-10T12:19:03.791Z,6.97
2018-04-10T12:21:31.228Z,7.33
2018-04-10T12:23:58.770Z,9.27
2018-04-10T12:26:26.202Z,11.43
2018-04-10T12:28:54.417Z,13.13
2018-04-10T12:31:21.869Z,6.83
2018-04-10T12:33:49.345Z,8.70
2018-04-10T12:36:16.828Z,11.47
2018-04-10T12:38:44.273Z,8.47
2018-04-10T12:41:11.746Z,5.20
2018-04-10T12:43:39.192Z,6.00
2018-04-10T12:46:06.662Z,6.30
2018-04-10T12:48:34.107Z,5.40
2018-04-10T12:51:01.600Z,5.10
2018-04-10T12:53:29.078Z,4.50
2018-04-10T12:55:56.505Z,5.13
2018-04-10T12:58:23.950Z,3.30
2018-04-10T13:00:51.394Z,5.07
2018-04-10T13:03:18.930Z,7.17
2018-04-10T13:05:46.429Z,5.00
2018-04-10T13:08:13.931Z,7.80
2018-04-10T13:10:41.494Z,5.10
2018-04-10T13:13:08.933Z,2.77
2018-04-10T13:15:36.389Z,8.17
2018-04-10T13:18:03.882Z,3.27
2018-04-10T13:20:31.866Z,7.90
2018-04-10T13:22:59.421Z,5.67
2018-04-10T13:25:26.861Z,5.03
2018-04-10T13:27:54.294Z,4.13
2018-04-10T13:30:21.737Z,6.17
2018-04-10T13:32:49.942Z,5.77
2018-04-10T13:35:18.294Z,11.30
2018-04-10T13:37:46.534Z,8.70
2018-04-10T13:40:14.062Z,6.23
2018-04-10T13:42:41.506Z,3.47
2018-04-10T13:45:09.017Z,6.17
2018-04-10T13:47:36.448Z,5.13
2018-04-10T13:50:03.937Z,9.40
2018-04-10T13:52:31.374Z,7.10
2018-04-10T13:54:58.862Z,4.30
2018-04-10T13:57:26.318Z,6.87
2018-04-10T13:59:53.754Z,6.80
2018-04-10T14:02:21.242Z,6.80
2018-04-10T14:04:48.697Z,6.27
2018-04-10T14:07:16.172Z,8.00
2018-04-10T14:09:43.630Z,5.43
2018-04-10T14:12:11.093Z,8.13
2018-04-10T14:14:38.534Z,11.43
2018-04-10T14:17:06.087Z,30.57
2018-04-10T14:19:33.540Z,10.20
2018-04-10T14:22:00.981Z,8.40
2018-04-10T14:24:29.214Z,13.73
2018-04-10T14:26:57.586Z,10.33
2018-04-10T14:29:25.080Z,18.00
2018-04-10T14:31:52.630Z,15.40
2018-04-10T14:34:20.167Z,13.50
2018-04-10T14:36:47.590Z,8.67
2018-04-10T14:39:15.803Z,7.63
2018-04-10T14:41:43.249Z,11.60
2018-04-10T14:44:10.685Z,14.17
2018-04-10T14:46:38.939Z,14.30
2018-04-10T14:49:06.386Z,19.57
2018-04-10T14:51:33.838Z,10.23
2018-04-10T14:54:01.290Z,24.70
2018-04-10T14:56:28.842Z,13.07
2018-04-10T14:58:57.048Z,21.87
2018-04-10T15:01:24.508Z,23.37
2018-04-10T15:03:51.971Z,27.17
2018-04-10T15:06:19.433Z,18.20
2018-04-10T15:08:46.882Z,15.53
2018-04-10T15:11:14.376Z,23.47
2018-04-10T15:13:41.836Z,25.13
2018-04-10T15:16:09.390Z,11.67
2018-04-10T15:18:36.845Z,20.40
2018-04-10T15:21:04.499Z,25.50
2018-04-10T15:23:31.982Z,26.10
2018-04-10T15:25:59.920Z,16.70
2018-04-10T15:28:27.409Z,32.17
2018-04-10T15:30:54.885Z,30.10
2018-04-10T15:33:22.384Z,27.53
2018-04-10T15:35:51.160Z,20.27
2018-04-10T15:38:18.602Z,22.83
2018-04-10T15:40:46.159Z,21.40
2018-04-10T15:43:13.599Z,13.70
2018-04-10T15:45:41.057Z,15.80
2018-04-10T15:48:08.518Z,31.63
2018-04-10T15:50:36.003Z,28.20
2018-04-10T15:53:03.566Z,27.77
2018-04-10T15:55:31.022Z,22.17
2018-04-10T15:57:58.470Z,23.40
2018-04-10T16:00:25.941Z,36.10
2018-04-10T16:02:53.403Z,32.77
2018-04-10T16:05:20.850Z,16.17
2018-04-10T16:07:48.355Z,26.60
2018-04-10T16:10:15.800Z,45.10
2018-04-10T16:12:43.294Z,29.40
2018-04-10T16:15:10.722Z,35.53
2018-04-10T16:17:38.174Z,17.63
2018-04-10T16:20:05.613Z,30.47
2018-04-10T16:22:33.070Z,23.57
2018-04-10T16:25:00.516Z,36.20
2018-04-10T16:27:28.734Z,13.50
2018-04-10T16:29:56.193Z,23.10
2018-04-10T16:32:23.645Z,18.30
2018-04-10T16:34:51.085Z,37.73
2018-04-10T16:37:18.584Z,28.40
2018-04-10T16:39:46.094Z,47.93
2018-04-10T16:42:14.315Z,29.17
2018-04-10T16:44:41.758Z,35.57
2018-04-10T16:47:09.254Z,33.33
2018-04-10T16:49:36.718Z,29.60
2018-04-10T16:52:04.185Z,12.03
2018-04-10T16:54:31.630Z,36.50
2018-04-10T16:56:59.101Z,38.80
2018-04-10T16:59:26.569Z,38.10
2018-04-10T17:01:54.034Z,46.93
2018-04-10T17:04:21.481Z,56.50
2018-04-10T17:06:49.138Z,18.13
2018-04-10T17:09:16.574Z,20.60
2018-04-10T17:11:44.029Z,18.90
2018-04-10T17:14:11.590Z,44.17
2018-04-10T17:16:39.790Z,24.00
2018-04-10T17:19:07.232Z,29.73
2018-04-10T17:21:34.677Z,12.30
2018-04-10T17:24:02.893Z,19.83
2018-04-10T17:26:30.346Z,19.00
2018-04-10T17:28:57.802Z,18.07
2018-04-10T17:31:25.238Z,42.77
2018-04-10T17:33:53.449Z,34.47
2018-04-10T17:36:20.955Z,43.07
2018-04-10T17:38:49.373Z,18.53
2018-04-10T17:41:17.572Z,33.97
2018-04-10T17:43:45.026Z,35.93
2018-04-10T17:46:13.294Z,50.03
2018-04-10T17:48:40.748Z,52.30
2018-04-10T17:51:08.970Z,23.03
2018-04-10T17:53:36.422Z,33.40
2018-04-10T17:56:03.925Z,21.30
2018-04-10T17:58:31.353Z,45.90
2018-04-10T18:00:58.800Z,50.67
2018-04-10T18:03:26.248Z,63.53
2018-04-10T18:05:53.750Z,20.53
2018-04-10T18:08:21.207Z,57.60
2018-04-10T18:10:48.641Z,62.17
2018-04-10T18:13:16.354Z,14.30
2018-04-10T18:15:43.801Z,40.50
2018-04-10T18:18:11.274Z,54.87
2018-04-10T18:20:38.706Z,48.87
2018-04-10T18:23:06.153Z,12.67
2018-04-10T18:25:33.606Z,57.97
2018-04-10T18:28:01.109Z,35.30
2018-04-10T18:30:28.568Z,48.13
2018-04-10T18:32:56.048Z,34.30
2018-04-10T18:35:23.481Z,47.13
2018-04-10T18:37:51.024Z,26.93
2018-04-10T18:40:18.488Z,42.67
2018-04-10T18:42:46.048Z,37.27
2018-04-10T18:45:13.473Z,54.50
2018-04-10T18:47:41.711Z,54.47
2018-04-10T18:50:09.186Z,22.53
2018-04-10T18:52:36.658Z,59.50
2018-04-10T18:55:04.102Z,44.50
2018-04-10T18:57:31.813Z,51.57
2018-04-10T19:00:00.121Z,53.87
2018-04-10T19:02:27.558Z,45.20
2018-04-10T19:04:55.774Z,43.07
2018-04-10T19:07:23.218Z,36.73
2018-04-10T19:09:50.785Z,30.63
2018-04-10T19:12:18.238Z,56.80
2018-04-10T19:14:45.692Z,54.20
2018-04-10T19:17:13.905Z,29.47
2018-04-10T19:19:41.357Z,37.60
2018-04-10T19:22:08.809Z,46.00
2018-04-10T19:24:36.251Z,50.90
2018-04-10T19:27:03.709Z,43.87
2018-04-10T19:29:31.170Z,62.67
2018-04-10T19:31:59.390Z,55.50
2018-04-10T19:34:26.840Z,33.47
2018-04-10T19:36:54.275Z,37.60
2018-04-10T19:39:21.854Z,31.37
2018-04-10T19:41:49.948Z,55.80
2018-04-10T19:44:17.397Z,37.60
2018-04-10T19:46:44.849Z,41.43
2018-04-10T19:49:12.315Z,46.07
2018-04-10T19:51:39.750Z,48.27
2018-04-10T19:54:07.994Z,48.80
2018-04-10T19:56:35.461Z,50.30
2018-04-10T19:59:02.897Z,47.67
2018-04-10T20:01:30.341Z,27.50
2018-04-10T20:03:57.809Z,20.00
2018-04-10T20:06:25.265Z,28.63
2018-04-10T20:08:52.750Z,16.40
2018-04-10T20:11:20.177Z,33.40
2018-04-10T20:13:47.653Z,15.90
2018-04-10T20:16:15.114Z,11.17
2018-04-10T20:18:42.671Z,13.43
2018-04-10T20:21:10.100Z,13.80
2018-04-10T20:23:38.425Z,12.03
2018-04-10T20:26:05.845Z,17.03
2018-04-10T20:28:34.075Z,18.60
2018-04-10T20:31:01.546Z,17.90
2018-04-10T20:33:29.014Z,21.03
2018-04-10T20:35:56.461Z,22.17
2018-04-10T20:38:23.917Z,21.33
2018-04-10T20:40:51.390Z,25.43
2018-04-10T20:43:18.839Z,20.03
2018-04-10T20:45:46.386Z,23.80
2018-04-10T20:48:13.835Z,24.50
2018-04-10T20:50:41.299Z,26.40
2018-04-10T20:53:08.738Z,27.37
2018-04-10T20:55:36.953Z,30.20
2018-04-10T20:58:04.406Z,29.37
2018-04-10T21:00:31.859Z,32.27
2018-04-10T21:02:59.307Z,35.27
2018-04-10T21:05:27.545Z,31.43
2018-04-10T21:07:54.970Z,31.30
2018-04-10T21:10:22.427Z,34.33
2018-04-10T21:12:49.891Z,35.23
2018-04-10T21:15:17.358Z,38.53
2018-04-10T21:17:44.806Z,37.13
2018-04-10T21:20:12.258Z,36.90
2018-04-10T21:22:40.461Z,32.90
2018-04-10T21:25:07.954Z,36.00
2018-04-10T21:27:35.412Z,36.80
2018-04-10T21:30:02.953Z,35.47
2018-04-10T21:35:08.633Z,41.13
2018-04-10T21:37:36.214Z,41.73
2018-04-10T21:40:03.770Z,49.50
2018-04-10T21:42:36.915Z,45.23
2018-04-10T21:45:05.137Z,43.03
2018-04-10T21:47:32.578Z,49.17
2018-04-10T21:50:00.102Z,48.20
2018-04-10T21:52:27.545Z,49.57
2018-04-10T21:54:54.990Z,49.80
2018-04-10T21:57:22.441Z,49.57
2018-04-10T21:59:49.885Z,49.57
2018-04-10T22:02:17.334Z,51.80
2018-04-10T22:04:44.802Z,51.90
2018-04-10T22:07:12.258Z,54.57
2018-04-10T22:09:39.706Z,57.43
2018-04-10T22:12:07.162Z,55.50
2018-04-10T22:14:35.373Z,56.80
2018-04-10T22:17:02.833Z,58.63
2018-04-10T22:19:30.353Z,57.27
2018-04-10T22:21:59.387Z,59.50
2018-04-10T22:24:26.830Z,63.37
2018-04-10T22:26:54.287Z,61.00
2018-04-10T22:29:22.490Z,66.30
2018-04-10T22:31:49.951Z,60.53
2018-04-10T22:34:17.362Z,61.80
2018-04-10T22:36:44.810Z,60.53
2018-04-10T22:39:13.035Z,62.13
2018-04-10T22:41:40.506Z,66.40
2018-04-10T22:44:07.930Z,67.70
2018-04-10T22:46:35.389Z,80.87
2018-04-10T22:49:03.575Z,71.23
2018-04-10T22:51:31.018Z,71.13
2018-04-10T22:53:59.230Z,72.60
2018-04-10T22:56:26.657Z,71.60
2018-04-10T22:58:54.878Z,66.57
2018-04-10T23:01:23.322Z,70.47
2018-04-10T23:03:51.539Z,68.10
2018-04-10T23:06:19.001Z,75.60
2018-04-10T23:08:46.459Z,80.03
2018-04-10T23:11:13.909Z,84.50
2018-04-10T23:13:41.373Z,77.03
2018-04-10T23:16:08.820Z,82.67
2018-04-10T23:18:37.054Z,85.70
2018-04-10T23:21:04.494Z,83.40
2018-04-10T23:23:31.987Z,81.53
2018-04-10T23:25:59.440Z,82.47
2018-04-10T23:28:26.883Z,87.53
2018-04-10T23:30:54.314Z,83.00
2018-04-10T23:33:22.542Z,94.13
2018-04-10T23:35:49.982Z,89.37
2018-04-10T23:38:17.439Z,84.17
2018-04-10T23:40:44.885Z,94.20
2018-04-10T23:43:13.116Z,94.30
2018-04-10T23:45:40.561Z,92.10
2018-04-10T23:48:08.802Z,96.40
2018-04-10T23:50:37.023Z,88.73
2018-04-10T23:53:04.467Z,89.10
2018-04-10T23:55:31.901Z,80.57
2018-04-10T23:58:00.121Z,87.10
